createdAt,value
2019-05-10T00:02:41.414Z,99652.40
2019-05-10T00:05:29.596Z,99655.12
2019-05-10T00:08:17.812Z,99649.41
2019-05-10T00:16:17.015Z,99653.81
2019-05-10T00:18:46.265Z,99661.91
2019-05-10T00:21:34.600Z,99658.42
2019-05-10T00:24:03.875Z,99658.42
2019-05-10T00:26:33.174Z,99664.07
2019-05-10T00:29:02.530Z,99602.20
2019-05-10T00:31:31.773Z,99659.27
2019-05-10T00:34:01.085Z,99657.49
2019-05-10T00:36:30.416Z,99658.22
2019-05-10T00:38:59.710Z,99663.30
2019-05-10T00:41:29.002Z,99669.23
2019-05-10T00:43:58.302Z,99666.14
2019-05-10T00:46:27.577Z,99660.10
2019-05-10T00:48:56.856Z,99666.69
2019-05-10T00:51:26.132Z,99660.59
2019-05-10T00:53:55.421Z,99667.91
2019-05-10T00:56:24.701Z,99668.67
2019-05-10T00:59:05.144Z,99671.97
2019-05-10T01:01:46.334Z,99672.32
2019-05-10T01:04:15.614Z,99672.32
2019-05-10T01:07:03.994Z,99664.23
2019-05-10T01:12:40.571Z,99667.14
2019-05-10T01:18:10.775Z,99671.36
2019-05-10T01:20:40.060Z,99669.49
2019-05-10T01:23:09.364Z,99664.48
2019-05-10T01:25:49.998Z,99654.31
2019-05-10T01:28:19.290Z,99654.31
2019-05-10T01:30:48.665Z,99656.66
2019-05-10T01:33:17.921Z,99643.48
2019-05-10T01:35:47.206Z,99649.70
2019-05-10T01:38:16.510Z,99648.09
2019-05-10T01:40:45.794Z,99652.31
2019-05-10T01:43:15.090Z,99657.98
2019-05-10T01:45:44.379Z,99655.52
2019-05-10T01:48:13.715Z,99662.00
2019-05-10T01:50:43.599Z,99660.59
2019-05-10T01:53:12.860Z,99654.76
2019-05-10T01:55:51.787Z,99662.47
2019-05-10T01:58:13.150Z,99664.15
2019-05-10T02:00:42.481Z,99661.05
2019-05-10T02:03:11.760Z,99656.61
2019-05-10T02:05:41.042Z,99649.82
2019-05-10T02:08:10.332Z,99656.80
2019-05-10T02:10:39.925Z,99649.82
2019-05-10T02:13:09.303Z,99653.41
2019-05-10T02:18:13.902Z,99654.27
2019-05-10T02:20:43.227Z,99658.48
2019-05-10T02:23:12.462Z,99651.90
2019-05-10T02:25:41.757Z,99652.26
2019-05-10T02:28:11.042Z,99644.35
2019-05-10T02:30:40.340Z,99649.27
2019-05-10T02:33:09.614Z,99647.94
2019-05-10T02:35:38.889Z,99636.48
2019-05-10T02:38:08.176Z,99636.11
2019-05-10T02:40:37.453Z,99651.73
2019-05-10T02:43:06.737Z,99658.78
2019-05-10T02:45:36.061Z,99661.41
2019-05-10T02:48:05.446Z,99653.97
2019-05-10T02:50:34.817Z,99660.56
2019-05-10T02:53:04.199Z,99665.01
2019-05-10T02:56:29.149Z,99659.64
2019-05-10T03:04:40.728Z,99660.33
2019-05-10T03:07:10.007Z,99666.42
2019-05-10T03:09:39.289Z,99663.05
2019-05-10T03:12:27.662Z,99670.01
2019-05-10T03:15:36.813Z,99671.33
2019-05-10T03:18:45.426Z,99664.18
2019-05-10T03:24:28.889Z,99656.67
2019-05-10T03:26:58.174Z,99655.34
2019-05-10T03:29:27.568Z,99659.13
2019-05-10T03:31:56.993Z,99661.78
2019-05-10T03:34:26.288Z,99667.97
2019-05-10T03:36:55.554Z,99597.31
2019-05-10T03:39:24.862Z,99671.75
2019-05-10T03:41:54.136Z,99669.70
2019-05-10T03:44:23.407Z,99673.75
2019-05-10T03:49:27.490Z,99683.79
2019-05-10T03:51:56.831Z,99694.14
2019-05-10T03:54:26.113Z,99691.91
2019-05-10T03:57:12.289Z,99683.05
2019-05-10T03:59:26.404Z,99683.41
2019-05-10T04:01:55.695Z,99684.63
2019-05-10T04:04:44.037Z,99687.17
2019-05-10T04:07:13.309Z,99687.17
2019-05-10T04:09:42.611Z,99687.83
2019-05-10T04:12:11.894Z,99691.30
2019-05-10T04:14:41.166Z,99687.73
2019-05-10T04:17:29.413Z,99678.71
2019-05-10T04:19:58.699Z,99680.03
2019-05-10T04:22:27.983Z,99682.76
2019-05-10T04:24:57.266Z,99684.53
2019-05-10T04:27:32.491Z,99675.70
2019-05-10T04:29:57.556Z,99676.19
2019-05-10T04:32:26.840Z,99663.31
2019-05-10T04:34:56.144Z,99680.60
2019-05-10T04:37:25.433Z,99684.09
2019-05-10T04:40:14.026Z,99683.41
2019-05-10T04:42:43.345Z,99687.17
2019-05-10T04:45:51.937Z,99697.13
2019-05-10T04:48:21.247Z,99695.05
2019-05-10T04:50:50.527Z,99698.05
2019-05-10T04:53:19.825Z,99701.24
2019-05-10T04:55:49.095Z,99699.17
2019-05-10T04:58:18.397Z,99705.07
2019-05-10T05:01:06.792Z,99706.20
2019-05-10T05:03:36.038Z,99706.20
2019-05-10T05:06:05.353Z,99704.34
2019-05-10T05:08:34.642Z,99703.59
2019-05-10T05:11:03.940Z,99706.71
2019-05-10T05:13:33.227Z,99708.27
2019-05-10T05:16:02.502Z,99698.78
2019-05-10T05:18:31.841Z,99692.84
2019-05-10T05:21:20.093Z,99686.80
2019-05-10T05:24:08.326Z,99688.13
2019-05-10T05:26:37.632Z,99694.41
2019-05-10T05:29:06.935Z,99680.53
2019-05-10T05:34:24.495Z,99650.16
2019-05-10T05:36:53.806Z,99682.38
2019-05-10T05:39:23.097Z,99682.25
2019-05-10T05:41:56.178Z,99684.77
2019-05-10T05:44:26.043Z,99687.84
2019-05-10T05:46:54.539Z,99685.70
2019-05-10T05:49:23.821Z,99688.83
2019-05-10T05:51:53.109Z,99682.48
2019-05-10T05:57:17.290Z,99671.22
2019-05-10T05:59:49.050Z,99677.12
2019-05-10T06:02:17.585Z,99676.70
2019-05-10T06:04:47.714Z,99682.25
2019-05-10T06:07:17.901Z,99680.67
2019-05-10T06:09:47.217Z,99674.44
2019-05-10T06:12:16.492Z,99668.46
2019-05-10T06:14:49.804Z,99673.19
2019-05-10T06:17:16.833Z,99665.87
2019-05-10T06:19:46.106Z,99664.70
2019-05-10T06:24:55.590Z,99670.12
2019-05-10T06:27:24.892Z,99671.22
2019-05-10T06:29:54.185Z,99670.28
2019-05-10T06:32:23.504Z,99672.96
2019-05-10T06:34:52.795Z,99671.98
2019-05-10T06:39:57.528Z,99665.01
2019-05-10T06:42:28.691Z,99660.43
2019-05-10T06:44:57.900Z,99665.25
2019-05-10T06:47:27.171Z,99665.51
2019-05-10T06:49:59.322Z,99663.32
2019-05-10T06:52:29.817Z,99666.70
2019-05-10T06:54:59.693Z,99678.39
2019-05-10T06:57:29.008Z,99672.74
2019-05-10T07:00:17.209Z,99670.33
2019-05-10T07:02:46.509Z,99670.18
2019-05-10T07:05:16.496Z,99667.61
2019-05-10T07:07:46.022Z,99660.95
2019-05-10T07:12:50.341Z,99653.23
2019-05-10T07:15:42.346Z,99661.82
2019-05-10T07:18:11.018Z,99657.69
2019-05-10T07:20:43.202Z,99660.57
2019-05-10T07:23:11.411Z,99660.31
2019-05-10T07:25:43.839Z,99654.50
2019-05-10T07:28:15.994Z,99660.88
2019-05-10T07:30:42.735Z,99659.56
2019-05-10T07:33:12.064Z,99666.38
2019-05-10T07:36:02.411Z,99658.22
2019-05-10T07:38:32.949Z,99660.05
2019-05-10T07:41:02.864Z,99659.75
2019-05-10T07:43:32.130Z,99652.86
2019-05-10T07:46:20.467Z,99655.95
2019-05-10T07:48:53.411Z,99656.41
2019-05-10T07:51:22.910Z,99661.96
2019-05-10T07:54:10.834Z,99664.97
2019-05-10T07:56:45.719Z,99665.45
2019-05-10T07:59:16.335Z,99661.18
2019-05-10T08:01:42.164Z,99655.97
2019-05-10T08:06:51.716Z,99651.60
2019-05-10T08:09:19.313Z,99648.87
2019-05-10T08:11:54.016Z,99659.38
2019-05-10T08:14:20.902Z,99661.55
2019-05-10T08:16:58.453Z,99657.98
2019-05-10T08:19:21.242Z,99653.05
2019-05-10T08:21:56.446Z,99656.79
2019-05-10T08:24:22.227Z,99650.37
2019-05-10T08:27:11.184Z,99653.31
2019-05-10T08:30:17.956Z,99653.47
2019-05-10T08:32:29.937Z,99652.11
2019-05-10T08:37:52.931Z,99660.03
2019-05-10T08:40:28.173Z,99663.23
2019-05-10T08:43:03.177Z,99664.77
2019-05-10T08:45:23.859Z,99674.60
2019-05-10T08:48:01.043Z,99683.00
2019-05-10T08:50:42.622Z,99683.30
2019-05-10T08:52:56.875Z,99685.70
2019-05-10T08:55:26.293Z,99689.07
2019-05-10T08:57:55.604Z,99686.34
2019-05-10T09:03:18.360Z,99690.81
2019-05-10T09:05:44.302Z,99699.38
2019-05-10T09:08:19.510Z,99698.38
2019-05-10T09:10:44.654Z,99699.78
2019-05-10T09:13:14.092Z,99693.14
2019-05-10T09:15:51.668Z,99698.94
2019-05-10T09:18:14.414Z,99704.59
2019-05-10T09:20:43.715Z,99712.52
2019-05-10T09:23:18.679Z,99716.48
2019-05-10T09:25:44.090Z,99726.13
2019-05-10T09:28:16.648Z,99727.04
2019-05-10T09:30:56.932Z,99731.64
2019-05-10T09:33:15.447Z,99731.92
2019-05-10T09:35:51.165Z,99736.92
2019-05-10T09:38:39.205Z,99740.45
2019-05-10T09:41:05.780Z,99742.41
2019-05-10T09:43:42.448Z,99751.11
2019-05-10T09:46:06.089Z,99753.12
2019-05-10T09:48:35.415Z,99750.56
2019-05-10T09:51:04.759Z,99753.95
2019-05-10T09:53:34.078Z,99755.25
2019-05-10T09:56:03.507Z,99754.55
2019-05-10T09:58:32.745Z,99757.94
2019-05-10T10:01:13.440Z,99752.13
2019-05-10T10:03:39.882Z,99708.34
2019-05-10T10:06:07.799Z,99752.22
2019-05-10T10:08:35.171Z,99757.28
2019-05-10T10:11:14.067Z,99759.34
2019-05-10T10:13:43.077Z,99757.98
2019-05-10T10:16:25.459Z,99755.80
2019-05-10T10:18:54.752Z,99752.39
2019-05-10T10:26:48.183Z,99737.95
2019-05-10T10:29:18.079Z,99745.45
2019-05-10T10:31:54.809Z,99738.31
2019-05-10T10:34:18.412Z,99738.85
2019-05-10T10:36:47.741Z,99736.22
2019-05-10T10:39:17.199Z,99738.06
2019-05-10T10:41:49.204Z,99734.37
2019-05-10T10:44:19.064Z,99737.29
2019-05-10T10:46:48.374Z,99735.97
2019-05-10T10:49:17.871Z,99735.38
2019-05-10T10:51:47.353Z,99737.67
2019-05-10T10:56:51.894Z,99746.86
2019-05-10T10:59:21.172Z,99738.78
2019-05-10T11:02:16.027Z,99740.50
2019-05-10T11:07:11.098Z,99753.27
2019-05-10T11:15:03.580Z,99739.72
2019-05-10T11:17:32.900Z,99741.14
2019-05-10T11:20:02.169Z,99742.31
2019-05-10T11:22:31.863Z,99736.31
2019-05-10T11:25:09.154Z,99742.67
2019-05-10T11:27:33.472Z,99739.63
2019-05-10T11:30:02.764Z,99741.86
2019-05-10T11:32:32.033Z,99741.09
2019-05-10T11:35:01.302Z,99744.47
2019-05-10T11:37:45.525Z,99744.08
2019-05-10T11:43:17.413Z,99734.02
2019-05-10T11:45:45.925Z,99732.02
2019-05-10T11:48:15.233Z,99728.78
2019-05-10T11:50:44.514Z,99732.02
2019-05-10T11:53:32.902Z,99728.73
2019-05-10T11:56:02.488Z,99723.14
2019-05-10T12:01:16.364Z,99721.57
2019-05-10T12:03:35.257Z,99727.03
2019-05-10T12:06:08.820Z,99727.65
2019-05-10T12:08:35.549Z,99729.94
2019-05-10T12:11:15.695Z,99733.24
2019-05-10T12:13:35.825Z,99739.11
2019-05-10T12:16:05.225Z,99743.23
2019-05-10T12:18:36.304Z,99746.30
2019-05-10T12:21:24.543Z,99747.09
2019-05-10T12:23:56.320Z,99738.84
2019-05-10T12:25:59.518Z,99725.70
2019-05-10T12:29:02.702Z,99751.16
2019-05-10T12:31:26.925Z,99752.34
2019-05-10T12:34:02.440Z,99760.75
2019-05-10T12:36:27.756Z,99762.08
2019-05-10T12:38:58.965Z,99758.48
2019-05-10T12:41:31.459Z,99771.23
2019-05-10T12:44:04.179Z,99773.50
2019-05-10T12:46:31.428Z,99771.18
2019-05-10T12:49:02.097Z,99773.58
2019-05-10T12:54:12.929Z,99774.67
2019-05-10T12:56:44.204Z,99786.47
2019-05-10T12:59:13.293Z,99787.62
2019-05-10T13:02:04.378Z,99786.20
2019-05-10T13:04:40.498Z,99791.44
2019-05-10T13:10:02.010Z,99795.06
2019-05-10T13:12:22.948Z,99788.16
2019-05-10T13:14:53.856Z,99794.02
2019-05-10T13:17:23.150Z,99784.79
2019-05-10T13:19:57.827Z,99788.34
2019-05-10T13:22:42.569Z,99791.19
2019-05-10T13:28:20.480Z,99796.52
2019-05-10T13:30:50.078Z,99789.36
2019-05-10T13:33:28.659Z,99789.15
2019-05-10T13:35:55.800Z,99790.39
2019-05-10T13:38:21.388Z,99789.58
2019-05-10T13:40:50.708Z,99791.72
2019-05-10T13:43:26.496Z,99794.36
2019-05-10T13:45:51.020Z,99800.94
2019-05-10T13:48:20.374Z,99795.19
2019-05-10T13:50:49.670Z,99794.87
2019-05-10T13:53:20.786Z,99799.44
2019-05-10T13:55:50.083Z,99798.45
2019-05-10T13:58:19.378Z,99803.70
2019-05-10T14:00:48.695Z,99811.69
2019-05-10T14:03:18.026Z,99811.50
2019-05-10T14:05:47.416Z,99813.03
2019-05-10T14:08:16.717Z,99822.34
2019-05-10T14:13:35.586Z,99829.59
2019-05-10T14:16:24.622Z,99823.22
2019-05-10T14:18:53.893Z,99832.45
2019-05-10T14:24:15.201Z,99829.98
2019-05-10T14:26:42.572Z,99830.41
2019-05-10T14:29:11.958Z,99832.35
2019-05-10T14:31:41.277Z,99834.44
2019-05-10T14:34:15.109Z,99833.83
2019-05-10T14:37:00.463Z,99840.69
2019-05-10T14:39:29.755Z,99846.41
2019-05-10T14:42:02.138Z,99852.30
2019-05-10T14:44:50.399Z,99850.95
2019-05-10T14:47:19.770Z,99848.94
2019-05-10T14:49:49.119Z,99861.08
2019-05-10T14:52:18.525Z,99863.27
2019-05-10T14:54:55.523Z,99856.91
2019-05-10T14:57:21.839Z,99853.89
2019-05-10T15:02:26.599Z,99858.49
2019-05-10T15:04:56.031Z,99858.11
2019-05-10T15:07:25.491Z,99848.23
2019-05-10T15:10:00.275Z,99861.18
2019-05-10T15:12:25.830Z,99858.67
2019-05-10T15:14:55.241Z,99854.56
2019-05-10T15:17:24.594Z,99858.69
2019-05-10T15:19:59.906Z,99860.00
2019-05-10T15:22:25.042Z,99872.18
2019-05-10T15:24:54.384Z,99867.13
2019-05-10T15:27:24.112Z,99864.94
2019-05-10T15:29:58.749Z,99874.86
2019-05-10T15:32:36.764Z,99871.22
2019-05-10T15:35:08.472Z,99877.85
2019-05-10T15:37:40.724Z,99874.72
2019-05-10T15:43:16.450Z,99881.36
2019-05-10T15:46:00.132Z,99879.66
2019-05-10T15:48:29.591Z,99890.62
2019-05-10T15:50:58.879Z,99889.26
2019-05-10T15:53:28.223Z,99890.42
2019-05-10T15:55:58.932Z,99885.59
2019-05-10T15:58:30.560Z,99900.64
2019-05-10T16:00:59.563Z,99898.56
2019-05-10T16:03:28.956Z,99903.35
2019-05-10T16:06:00.721Z,99901.05
2019-05-10T16:08:30.306Z,99904.66
2019-05-10T16:11:00.346Z,99912.95
2019-05-10T16:13:29.674Z,99906.91
2019-05-10T16:15:59.566Z,99911.28
2019-05-10T16:18:33.508Z,99907.66
2019-05-10T16:21:01.107Z,99868.56
2019-05-10T16:23:30.393Z,99913.36
2019-05-10T16:25:59.685Z,99908.17
2019-05-10T16:28:28.953Z,99914.19
2019-05-10T16:33:48.225Z,99922.20
2019-05-10T16:36:17.572Z,99920.28
2019-05-10T16:38:46.885Z,99924.10
2019-05-10T16:41:16.223Z,99925.63
2019-05-10T16:43:45.594Z,99930.77
2019-05-10T16:46:14.967Z,99934.03
2019-05-10T16:48:44.289Z,99944.44
2019-05-10T16:51:13.617Z,99946.73
2019-05-10T16:53:45.824Z,99948.27
2019-05-10T16:56:18.998Z,99943.55
2019-05-10T16:58:47.586Z,99950.73
2019-05-10T17:01:18.651Z,99953.84
2019-05-10T17:03:51.290Z,99955.61
2019-05-10T17:06:18.311Z,99963.56
2019-05-10T17:08:47.667Z,99970.05
2019-05-10T17:14:05.256Z,99980.19
2019-05-10T17:16:34.593Z,99982.70
2019-05-10T17:19:03.981Z,99981.02
2019-05-10T17:21:33.347Z,99983.45
2019-05-10T17:24:02.747Z,99991.17
2019-05-10T17:26:32.916Z,99986.88
2019-05-10T17:29:07.144Z,99985.63
2019-05-10T17:31:34.310Z,99989.92
2019-05-10T17:36:38.891Z,99987.42
2019-05-10T17:39:08.249Z,99989.28
2019-05-10T17:41:37.545Z,99993.75
2019-05-10T17:44:06.840Z,99991.52
2019-05-10T17:46:36.204Z,99991.48
2019-05-10T17:49:05.480Z,100001.05
2019-05-10T17:51:34.779Z,99996.59
2019-05-10T17:54:04.086Z,100000.20
2019-05-10T17:56:38.821Z,100009.52
2019-05-10T17:59:05.782Z,100011.45
2019-05-10T18:01:37.626Z,100012.61
2019-05-10T18:04:07.367Z,100013.17
2019-05-10T18:09:25.015Z,100021.36
2019-05-10T18:11:54.304Z,100024.10
2019-05-10T18:14:23.587Z,100027.88
2019-05-10T18:16:52.928Z,100025.73
2019-05-10T18:19:24.539Z,100028.58
2019-05-10T18:21:54.780Z,100033.13
2019-05-10T18:24:24.324Z,100033.33
2019-05-10T18:26:53.609Z,100039.74
2019-05-10T18:29:22.897Z,100038.81
2019-05-10T18:31:55.946Z,100038.42
2019-05-10T18:34:26.440Z,100039.02
2019-05-10T18:36:54.422Z,100042.98
2019-05-10T18:39:47.364Z,100039.58
2019-05-10T18:42:18.907Z,100047.50
2019-05-10T18:44:45.751Z,100060.75
2019-05-10T18:47:15.866Z,100062.62
2019-05-10T18:49:45.181Z,100065.17
2019-05-10T18:52:14.458Z,100065.57
2019-05-10T18:54:43.765Z,100065.47
2019-05-10T18:57:18.805Z,100077.75
2019-05-10T18:59:45.559Z,100069.16
2019-05-10T19:02:17.984Z,100068.50
2019-05-10T19:04:52.049Z,100073.58
2019-05-10T19:07:17.119Z,100071.23
2019-05-10T19:09:46.410Z,100071.33
2019-05-10T19:12:18.732Z,100078.53
2019-05-10T19:14:46.786Z,100085.33
2019-05-10T19:17:16.168Z,100089.08
2019-05-10T19:19:45.456Z,100085.12
2019-05-10T19:22:14.749Z,100084.84
2019-05-10T19:24:44.041Z,100086.45
2019-05-10T19:27:13.340Z,100089.09
2019-05-10T19:30:01.560Z,100093.61
2019-05-10T19:32:30.819Z,100087.41
2019-05-10T19:35:00.098Z,100094.39
2019-05-10T19:37:34.105Z,100092.50
2019-05-10T19:40:00.391Z,100094.87
2019-05-10T19:42:31.675Z,100095.05
2019-05-10T19:45:00.707Z,100100.25
2019-05-10T19:47:30.011Z,100102.31
2019-05-10T19:49:59.333Z,100108.73
2019-05-10T19:52:28.623Z,100107.96
2019-05-10T19:54:57.931Z,100103.20
2019-05-10T19:57:27.210Z,100099.83
2019-05-10T19:59:56.516Z,100102.06
2019-05-10T20:02:25.806Z,100110.94
2019-05-10T20:04:55.091Z,100108.11
2019-05-10T20:07:24.405Z,100109.44
2019-05-10T20:09:53.689Z,100114.13
2019-05-10T20:12:22.995Z,100111.48
2019-05-10T20:14:52.281Z,100110.63
2019-05-10T20:17:22.054Z,100104.89
2019-05-10T20:19:52.601Z,100111.86
2019-05-10T20:22:21.876Z,100112.03
2019-05-10T20:24:51.262Z,100113.72
2019-05-10T20:30:48.115Z,100124.67
2019-05-10T20:33:17.399Z,100129.27
2019-05-10T20:35:46.698Z,100127.67
2019-05-10T20:38:15.990Z,100127.86
2019-05-10T20:41:04.323Z,100144.23
2019-05-10T20:43:33.588Z,100138.19
2019-05-10T20:46:02.953Z,100142.98
2019-05-10T20:48:32.249Z,100139.47
2019-05-10T20:51:01.522Z,100144.44
2019-05-10T20:53:30.857Z,100138.33
2019-05-10T20:56:00.123Z,100143.02
2019-05-10T20:58:29.405Z,100138.70
2019-05-10T21:00:58.690Z,100144.75
2019-05-10T21:03:39.288Z,100142.20
2019-05-10T21:08:56.827Z,100141.14
2019-05-10T21:11:45.002Z,100143.20
2019-05-10T21:14:14.303Z,100151.78
2019-05-10T21:16:43.663Z,100147.69
2019-05-10T21:19:12.965Z,100149.41
2019-05-10T21:21:44.742Z,100151.47
2019-05-10T21:24:14.017Z,100161.09
2019-05-10T21:26:43.310Z,100161.09
2019-05-10T21:29:12.582Z,100152.59
2019-05-10T21:31:41.892Z,100151.64
2019-05-10T21:34:11.181Z,100156.17
2019-05-10T21:36:40.446Z,100153.71
2019-05-10T21:39:09.823Z,100158.30
2019-05-10T21:41:39.039Z,100166.29
2019-05-10T21:44:08.326Z,100162.51
2019-05-10T21:46:37.612Z,100163.91
2019-05-10T21:49:06.891Z,100169.27
2019-05-10T21:54:11.018Z,100165.89
2019-05-10T21:56:40.320Z,100165.72
2019-05-10T22:01:57.920Z,100166.44
2019-05-10T22:04:27.210Z,100167.92
2019-05-10T22:07:15.442Z,100173.20
2019-05-10T22:09:44.743Z,100171.97
2019-05-10T22:12:14.017Z,100172.42
2019-05-10T22:14:43.313Z,100181.73
2019-05-10T22:17:15.077Z,100170.91
2019-05-10T22:19:44.367Z,100175.48
2019-05-10T22:22:13.831Z,100184.50
2019-05-10T22:24:43.095Z,100181.78
2019-05-10T22:27:12.396Z,100180.09
2019-05-10T22:29:41.684Z,100187.59
2019-05-10T22:32:10.944Z,100185.36
2019-05-10T22:34:40.242Z,100185.45
2019-05-10T22:37:09.518Z,100188.70
2019-05-10T22:39:38.884Z,100181.50
2019-05-10T22:42:08.173Z,100192.13
2019-05-10T22:44:37.479Z,100186.70
2019-05-10T22:47:06.755Z,100193.86
2019-05-10T22:49:36.195Z,100182.45
2019-05-10T22:52:05.498Z,100187.35
2019-05-10T22:54:34.808Z,100194.31
2019-05-10T22:57:04.100Z,100200.90
2019-05-10T22:59:33.372Z,100200.53
2019-05-10T23:02:02.662Z,100197.28
2019-05-10T23:04:31.933Z,100201.14
2019-05-10T23:07:01.235Z,100205.10
2019-05-10T23:09:30.521Z,100196.53
2019-05-10T23:11:59.792Z,100200.48
2019-05-10T23:14:29.073Z,100206.66
2019-05-10T23:16:58.344Z,100205.75
2019-05-10T23:19:46.697Z,100200.81
2019-05-10T23:22:15.969Z,100200.81
2019-05-10T23:24:45.294Z,100205.68
2019-05-10T23:29:49.709Z,100203.33
2019-05-10T23:32:19.023Z,100215.02
2019-05-10T23:34:48.345Z,100218.59
2019-05-10T23:37:17.653Z,100222.70
2019-05-10T23:39:46.962Z,100210.44
2019-05-10T23:42:16.241Z,100215.88
2019-05-10T23:45:04.891Z,100212.56
2019-05-10T23:47:34.174Z,100212.56
2019-05-10T23:53:17.364Z,100218.16
2019-05-10T23:55:58.030Z,100219.02
2019-05-10T23:58:27.326Z,100221.67
